createdAt,value
2022-08-26T00:04:19.956Z,21.96
2022-08-26T00:09:25.356Z,21.77
2022-08-26T00:14:30.873Z,21.57
2022-08-26T00:19:34.089Z,21.39
2022-08-26T00:24:38.325Z,21.41
2022-08-26T00:29:41.557Z,21.48
2022-08-26T00:34:44.446Z,21.53
2022-08-26T00:39:48.901Z,21.57
2022-08-26T00:44:51.922Z,21.48
2022-08-26T00:49:56.281Z,21.36
2022-08-26T00:55:03.840Z,21.18
2022-08-26T01:00:11.395Z,20.92
2022-08-26T01:05:14.229Z,20.90
2022-08-26T01:10:23.135Z,20.98
2022-08-26T01:15:32.943Z,20.89
2022-08-26T01:20:42.675Z,20.89
2022-08-26T01:25:51.773Z,20.86
2022-08-26T01:30:56.517Z,20.87
2022-08-26T01:36:00.077Z,20.94
2022-08-26T01:41:12.471Z,21.00
2022-08-26T01:46:24.050Z,21.02
2022-08-26T01:51:28.488Z,20.85
2022-08-26T01:56:33.423Z,20.72
2022-08-26T02:01:39.701Z,20.61
2022-08-26T02:06:43.410Z,20.64
2022-08-26T02:11:48.626Z,20.65
2022-08-26T02:16:55.366Z,20.52
2022-08-26T02:22:00.509Z,20.50
2022-08-26T02:27:06.436Z,20.51
2022-08-26T02:32:10.740Z,20.49
2022-08-26T02:37:14.551Z,20.44
2022-08-26T02:42:21.965Z,20.34
2022-08-26T02:47:25.519Z,20.21
2022-08-26T02:52:31.956Z,20.27
2022-08-26T02:57:36.564Z,20.40
2022-08-26T03:02:40.652Z,20.33
2022-08-26T03:07:43.472Z,20.35
2022-08-26T03:12:49.719Z,20.34
2022-08-26T03:17:56.286Z,20.30
2022-08-26T03:23:00.232Z,20.29
2022-08-26T03:28:04.702Z,20.33
2022-08-26T03:33:08.399Z,20.28
2022-08-26T03:38:12.277Z,20.21
2022-08-26T03:43:17.679Z,20.10
2022-08-26T03:48:20.974Z,20.13
2022-08-26T03:53:24.171Z,20.15
2022-08-26T03:58:28.347Z,20.17
2022-08-26T04:03:49.348Z,20.00
2022-08-26T04:08:52.133Z,20.00
2022-08-26T04:13:57.094Z,19.98
2022-08-26T04:19:03.244Z,19.94
2022-08-26T04:24:09.219Z,19.96
2022-08-26T04:29:18.283Z,19.85
2022-08-26T04:34:21.070Z,19.66
2022-08-26T04:39:25.486Z,19.50
2022-08-26T04:44:32.137Z,19.49
2022-08-26T04:49:35.758Z,19.59
2022-08-26T04:54:38.755Z,19.74
2022-08-26T04:59:46.136Z,19.79
2022-08-26T05:04:52.402Z,19.82
2022-08-26T05:09:55.291Z,19.84
2022-08-26T05:14:59.900Z,19.89
2022-08-26T05:20:02.778Z,19.95
2022-08-26T05:25:07.594Z,19.87
2022-08-26T05:30:12.896Z,19.96
2022-08-26T05:35:15.769Z,20.00
2022-08-26T05:40:18.957Z,20.22
2022-08-26T05:45:26.435Z,20.31
2022-08-26T05:50:29.250Z,20.34
2022-08-26T05:55:33.213Z,20.33
2022-08-26T06:00:38.424Z,20.38
2022-08-26T06:05:42.701Z,20.44
2022-08-26T06:10:49.273Z,20.45
2022-08-26T06:15:56.567Z,20.43
2022-08-26T06:21:00.375Z,20.29
2022-08-26T06:26:04.259Z,20.02
2022-08-26T06:31:08.849Z,19.74
2022-08-26T06:36:18.619Z,19.67
2022-08-26T06:41:22.830Z,19.66
2022-08-26T06:46:27.297Z,19.55
2022-08-26T06:51:32.148Z,19.25
2022-08-26T06:56:39.296Z,19.15
2022-08-26T07:01:45.654Z,19.18
2022-08-26T07:06:52.439Z,19.21
2022-08-26T07:11:56.496Z,19.36
2022-08-26T07:17:01.349Z,19.42
2022-08-26T07:22:06.449Z,19.37
2022-08-26T07:27:13.817Z,19.79
2022-08-26T07:32:22.954Z,19.95
2022-08-26T07:37:26.046Z,20.23
2022-08-26T07:42:28.953Z,20.45
2022-08-26T07:47:33.174Z,20.60
2022-08-26T07:52:37.585Z,20.65
2022-08-26T07:57:41.344Z,20.78
2022-08-26T08:02:46.957Z,20.89
2022-08-26T08:07:53.519Z,20.94
2022-08-26T08:13:05.329Z,20.90
2022-08-26T08:18:15.453Z,20.91
2022-08-26T08:23:18.746Z,21.09
2022-08-26T08:28:21.529Z,21.24
2022-08-26T08:33:26.109Z,21.45
2022-08-26T08:38:29.368Z,21.49
2022-08-26T08:43:39.735Z,21.75
2022-08-26T08:48:47.804Z,22.07
2022-08-26T08:53:54.807Z,22.36
2022-08-26T08:59:05.597Z,22.65
2022-08-26T09:04:31.620Z,22.86
2022-08-26T09:09:37.917Z,23.12
2022-08-26T09:14:41.292Z,23.18
2022-08-26T09:19:51.040Z,23.32
2022-08-26T09:24:53.834Z,23.38
2022-08-26T09:30:00.571Z,23.53
2022-08-26T09:35:08.594Z,23.53
2022-08-26T09:40:19.041Z,23.46
2022-08-26T09:45:29.179Z,23.70
2022-08-26T09:50:37.471Z,23.75
2022-08-26T09:55:43.176Z,23.87
2022-08-26T10:00:56.820Z,23.97
2022-08-26T10:06:03.347Z,24.11
2022-08-26T10:11:13.074Z,24.24
2022-08-26T10:16:20.424Z,24.26
2022-08-26T10:21:28.073Z,24.32
2022-08-26T10:26:39.798Z,24.26
2022-08-26T10:31:48.170Z,24.11
2022-08-26T10:37:10.821Z,23.98
2022-08-26T10:42:23.173Z,23.86
2022-08-26T10:47:32.518Z,23.94
2022-08-26T10:52:49.006Z,24.20
2022-08-26T10:57:58.733Z,24.50
2022-08-26T11:03:21.654Z,24.60
2022-08-26T11:08:32.358Z,25.04
2022-08-26T11:14:01.393Z,25.48
2022-08-26T11:19:04.951Z,25.82
2022-08-26T11:24:09.109Z,26.07
2022-08-26T11:29:13.942Z,26.20
2022-08-26T11:34:16.840Z,26.51
2022-08-26T11:39:25.612Z,26.73
2022-08-26T11:44:38.090Z,26.85
2022-08-26T11:49:41.745Z,27.10
2022-08-26T11:54:59.291Z,27.41
2022-08-26T12:00:07.276Z,27.62
2022-08-26T12:05:13.754Z,27.88
2022-08-26T12:10:29.775Z,28.08
2022-08-26T12:15:35.666Z,28.33
2022-08-26T12:20:47.994Z,28.38
2022-08-26T12:25:51.773Z,28.29
2022-08-26T12:31:05.443Z,28.24
2022-08-26T12:36:08.358Z,28.16
2022-08-26T12:41:11.765Z,28.10
2022-08-26T12:46:18.949Z,27.86
2022-08-26T12:51:26.183Z,27.53
2022-08-26T12:56:35.065Z,27.33
2022-08-26T13:01:44.082Z,27.53
2022-08-26T13:06:46.955Z,27.49
2022-08-26T13:12:00.290Z,27.28
2022-08-26T13:17:06.584Z,27.26
2022-08-26T13:22:13.417Z,27.55
2022-08-26T13:27:17.864Z,27.45
2022-08-26T13:32:22.601Z,27.41
2022-08-26T13:37:34.940Z,27.72
2022-08-26T13:42:38.495Z,28.51
2022-08-26T13:47:53.969Z,29.05
2022-08-26T13:52:56.777Z,29.64
2022-08-26T13:57:59.614Z,29.70
2022-08-26T14:03:04.571Z,29.17
2022-08-26T14:08:07.843Z,29.30
2022-08-26T14:13:10.761Z,29.71
2022-08-26T14:18:17.379Z,29.40
2022-08-26T14:23:20.212Z,29.50
2022-08-26T14:28:23.182Z,29.83
2022-08-26T14:33:32.450Z,30.05
2022-08-26T14:38:35.267Z,30.68
2022-08-26T14:43:40.597Z,31.28
2022-08-26T14:48:44.998Z,31.68
2022-08-26T14:54:05.476Z,31.45
2022-08-26T14:59:08.298Z,31.50
2022-08-26T15:04:12.640Z,32.05
2022-08-26T15:09:16.031Z,32.43
2022-08-26T15:14:20.087Z,32.28
2022-08-26T15:19:27.812Z,32.09
2022-08-26T15:24:30.592Z,32.72
2022-08-26T15:29:33.416Z,32.68
2022-08-26T15:34:40.612Z,32.95
2022-08-26T15:39:44.131Z,32.97
2022-08-26T15:44:46.933Z,32.30
2022-08-26T15:49:51.166Z,31.94
2022-08-26T15:54:54.053Z,31.93
2022-08-26T15:59:56.992Z,32.20
2022-08-26T16:05:01.359Z,32.27
2022-08-26T16:10:09.842Z,32.16
2022-08-26T16:15:13.318Z,31.60
2022-08-26T16:20:21.369Z,32.21
2022-08-26T16:25:27.267Z,32.76
2022-08-26T16:30:32.128Z,32.49
2022-08-26T16:35:36.658Z,32.52
2022-08-26T16:40:39.536Z,31.90
2022-08-26T16:45:42.411Z,31.76
2022-08-26T16:50:46.693Z,30.40
2022-08-26T16:55:50.089Z,29.44
2022-08-26T17:00:52.847Z,28.37
2022-08-26T17:05:57.068Z,27.60
2022-08-26T17:11:00.369Z,27.21
2022-08-26T17:16:04.764Z,27.37
2022-08-26T17:21:11.761Z,27.49
2022-08-26T17:26:14.693Z,27.28
2022-08-26T17:31:17.930Z,27.25
2022-08-26T17:36:22.980Z,26.74
2022-08-26T17:41:31.169Z,26.44
2022-08-26T17:46:38.218Z,26.09
2022-08-26T17:51:42.588Z,26.09
2022-08-26T17:56:45.341Z,25.97
2022-08-26T18:01:48.218Z,25.69
2022-08-26T18:06:52.398Z,25.48
2022-08-26T18:11:55.174Z,25.22
2022-08-26T18:16:57.940Z,24.84
2022-08-26T18:22:02.035Z,24.38
2022-08-26T18:27:05.129Z,23.91
2022-08-26T18:32:08.566Z,23.69
2022-08-26T18:37:14.313Z,23.44
2022-08-26T18:42:17.148Z,23.18
2022-08-26T18:47:20.029Z,23.10
2022-08-26T18:52:24.400Z,22.89
2022-08-26T18:57:27.413Z,22.54
2022-08-26T19:02:30.648Z,22.57
2022-08-26T19:07:39.395Z,22.63
2022-08-26T19:12:42.508Z,22.57
2022-08-26T19:17:46.415Z,22.48
2022-08-26T19:22:50.554Z,22.37
2022-08-26T19:27:53.309Z,22.32
2022-08-26T19:32:56.079Z,22.29
2022-08-26T19:38:01.520Z,22.25
2022-08-26T19:43:04.779Z,22.15
2022-08-26T19:48:08.569Z,22.14
2022-08-26T19:53:12.758Z,22.12
2022-08-26T19:58:15.504Z,22.05
2022-08-26T20:03:18.282Z,21.77
2022-08-26T20:08:22.860Z,21.70
2022-08-26T20:13:25.765Z,21.57
2022-08-26T20:18:45.841Z,21.53
2022-08-26T20:23:51.356Z,21.39
2022-08-26T20:28:54.172Z,21.23
2022-08-26T20:33:58.020Z,20.99
2022-08-26T20:39:02.222Z,20.97
2022-08-26T20:44:05.799Z,20.80
2022-08-26T20:49:08.899Z,20.75
2022-08-26T20:54:13.885Z,20.88
2022-08-26T20:59:17.265Z,20.91
2022-08-26T21:04:22.592Z,20.87
2022-08-26T21:09:27.254Z,20.73
2022-08-26T21:14:31.371Z,20.52
2022-08-26T21:19:34.192Z,20.56
2022-08-26T21:24:38.349Z,20.66
2022-08-26T21:29:41.106Z,20.68
2022-08-26T21:34:43.986Z,20.62
2022-08-26T21:39:48.193Z,20.40
2022-08-26T21:44:52.957Z,20.40
2022-08-26T21:49:55.926Z,20.38
2022-08-26T21:55:01.882Z,20.42
2022-08-26T22:00:07.128Z,20.43
2022-08-26T22:05:10.218Z,20.54
2022-08-26T22:10:14.541Z,20.48
2022-08-26T22:15:19.719Z,20.36
2022-08-26T22:20:23.801Z,20.27
2022-08-26T22:25:28.605Z,20.10
2022-08-26T22:30:31.448Z,19.85
2022-08-26T22:35:34.273Z,19.80
2022-08-26T22:40:43.485Z,19.78
2022-08-26T22:45:48.527Z,19.69
2022-08-26T22:50:57.127Z,19.65
2022-08-26T22:56:04.521Z,19.66
2022-08-26T23:01:08.398Z,19.55
2022-08-26T23:06:11.450Z,19.49
2022-08-26T23:11:16.081Z,19.44
2022-08-26T23:16:18.939Z,19.41
2022-08-26T23:21:21.753Z,19.33
2022-08-26T23:26:26.016Z,19.23
2022-08-26T23:31:28.893Z,19.12
2022-08-26T23:36:31.748Z,19.04
2022-08-26T23:41:39.293Z,18.84
2022-08-26T23:46:42.065Z,18.74
2022-08-26T23:52:02.515Z,18.68
2022-08-26T23:57:07.108Z,18.72
